sensor_id;sensor_type;location;lat;lon;timestamp;P1;P2;P0
64697;PMS5003;51124;53.394;-6.294;2023-03-14T00:01:43;10;10;
64697;PMS5003;51124;53.394;-6.294;2023-03-14T00:04:11;9;9;
64697;PMS5003;51124;53.394;-6.294;2023-03-14T00:06:39;10;10;
64697;PMS5003;51124;53.394;-6.294;2023-03-14T00:09:07;9;9;
64697;PMS5003;51124;53.394;-6.294;2023-03-14T00:11:34;7;7;
64697;PMS5003;51124;53.394;-6.294;2023-03-14T00:14:02;7;7;
64697;PMS5003;51124;53.394;-6.294;2023-03-14T00:16:30;10;10;
64697;PMS5003;51124;53.394;-6.294;2023-03-14T00:18:58;10;8;
64697;PMS5003;51124;53.394;-6.294;2023-03-14T00:21:26;9;9;
64697;PMS5003;51124;53.394;-6.294;2023-03-14T00:23:54;9;9;
64697;PMS5003;51124;53.394;-6.294;2023-03-14T00:26:21;9;9;
64697;PMS5003;51124;53.394;-6.294;2023-03-14T00:28:50;7;7;
64697;PMS5003;51124;53.394;-6.294;2023-03-14T00:31:18;8;8;
64697;PMS5003;51124;53.394;-6.294;2023-03-14T00:33:46;9;8;
64697;PMS5003;51124;53.394;-6.294;2023-03-14T00:36:16;8;8;
64697;PMS5003;51124;53.394;-6.294;2023-03-14T00:38:44;10;10;
64697;PMS5003;51124;53.394;-6.294;2023-03-14T00:41:14;7;7;
64697;PMS5003;51124;53.394;-6.294;2023-03-14T00:43:43;7;7;
64697;PMS5003;51124;53.394;-6.294;2023-03-14T00:46:11;7;7;
64697;PMS5003;51124;53.394;-6.294;2023-03-14T00:48:38;7;7;
64697;PMS5003;51124;53.394;-6.294;2023-03-14T00:51:07;6;6;
64697;PMS5003;51124;53.394;-6.294;2023-03-14T00:53:35;8;8;
64697;PMS5003;51124;53.394;-6.294;2023-03-14T00:56:03;6;6;
64697;PMS5003;51124;53.394;-6.294;2023-03-14T00:58:33;8;8;
64697;PMS5003;51124;53.394;-6.294;2023-03-14T01:01:04;9;9;
64697;PMS5003;51124;53.394;-6.294;2023-03-14T01:03:33;7;7;
64697;PMS5003;51124;53.394;-6.294;2023-03-14T01:06:09;9;9;
64697;PMS5003;51124;53.394;-6.294;2023-03-14T01:08:28;7;7;
64697;PMS5003;51124;53.394;-6.294;2023-03-14T01:10:55;8;8;
64697;PMS5003;51124;53.394;-6.294;2023-03-14T01:13:23;9;7;
64697;PMS5003;51124;53.394;-6.294;2023-03-14T01:15:50;8;8;
64697;PMS5003;51124;53.394;-6.294;2023-03-14T01:18:17;7;7;
64697;PMS5003;51124;53.394;-6.294;2023-03-14T01:20:45;8;7;
64697;PMS5003;51124;53.394;-6.294;2023-03-14T01:23:12;7;7;
64697;PMS5003;51124;53.394;-6.294;2023-03-14T01:25:40;7;7;
64697;PMS5003;51124;53.394;-6.294;2023-03-14T01:28:07;6;6;
64697;PMS5003;51124;53.394;-6.294;2023-03-14T01:30:35;6;6;
64697;PMS5003;51124;53.394;-6.294;2023-03-14T01:33:02;8;8;
64697;PMS5003;51124;53.394;-6.294;2023-03-14T01:35:30;7;7;
64697;PMS5003;51124;53.394;-6.294;2023-03-14T01:37:57;10;8;
64697;PMS5003;51124;53.394;-6.294;2023-03-14T01:40:24;9;9;
64697;PMS5003;51124;53.394;-6.294;2023-03-14T01:42:55;9;7;
64697;PMS5003;51124;53.394;-6.294;2023-03-14T01:45:58;8;7;
64697;PMS5003;51124;53.394;-6.294;2023-03-14T01:47:52;9;8;
64697;PMS5003;51124;53.394;-6.294;2023-03-14T01:50:19;6;6;
64697;PMS5003;51124;53.394;-6.294;2023-03-14T01:52:47;8;7;
64697;PMS5003;51124;53.394;-6.294;2023-03-14T01:55:18;6;6;
64697;PMS5003;51124;53.394;-6.294;2023-03-14T01:57:49;7;7;
64697;PMS5003;51124;53.394;-6.294;2023-03-14T02:00:19;7;7;
64697;PMS5003;51124;53.394;-6.294;2023-03-14T02:02:51;6;6;
64697;PMS5003;51124;53.394;-6.294;2023-03-14T02:05:21;6;6;
64697;PMS5003;51124;53.394;-6.294;2023-03-14T02:07:51;6;6;
64697;PMS5003;51124;53.394;-6.294;2023-03-14T02:10:21;7;7;
64697;PMS5003;51124;53.394;-6.294;2023-03-14T02:12:52;8;7;
64697;PMS5003;51124;53.394;-6.294;2023-03-14T02:15:21;7;7;
64697;PMS5003;51124;53.394;-6.294;2023-03-14T02:17:48;7;7;
64697;PMS5003;51124;53.394;-6.294;2023-03-14T02:20:21;8;7;
64697;PMS5003;51124;53.394;-6.294;2023-03-14T02:22:45;5;5;
64697;PMS5003;51124;53.394;-6.294;2023-03-14T02:25:15;6;6;
64697;PMS5003;51124;53.394;-6.294;2023-03-14T02:27:48;8;7;
64697;PMS5003;51124;53.394;-6.294;2023-03-14T02:30:16;8;6;
64697;PMS5003;51124;53.394;-6.294;2023-03-14T02:32:46;7;6;
64697;PMS5003;51124;53.394;-6.294;2023-03-14T02:35:17;6;6;
64697;PMS5003;51124;53.394;-6.294;2023-03-14T02:37:49;7;6;
64697;PMS5003;51124;53.394;-6.294;2023-03-14T02:40:22;6;6;
64697;PMS5003;51124;53.394;-6.294;2023-03-14T02:42:50;8;8;
64697;PMS5003;51124;53.394;-6.294;2023-03-14T02:45:30;7;7;
64697;PMS5003;51124;53.394;-6.294;2023-03-14T02:47:53;6;5;
64697;PMS5003;51124;53.394;-6.294;2023-03-14T02:50:24;6;6;
64697;PMS5003;51124;53.394;-6.294;2023-03-14T02:52:56;6;6;
64697;PMS5003;51124;53.394;-6.294;2023-03-14T02:55:24;7;6;
64697;PMS5003;51124;53.394;-6.294;2023-03-14T02:57:52;8;7;
64697;PMS5003;51124;53.394;-6.294;2023-03-14T03:00:20;6;6;
64697;PMS5003;51124;53.394;-6.294;2023-03-14T03:02:48;7;7;
64697;PMS5003;51124;53.394;-6.294;2023-03-14T03:05:17;6;5;
64697;PMS5003;51124;53.394;-6.294;2023-03-14T03:07:44;6;6;
64697;PMS5003;51124;53.394;-6.294;2023-03-14T03:10:12;8;6;
64697;PMS5003;51124;53.394;-6.294;2023-03-14T03:12:40;5;5;
64697;PMS5003;51124;53.394;-6.294;2023-03-14T03:15:09;8;8;
64697;PMS5003;51124;53.394;-6.294;2023-03-14T03:17:37;7;7;
64697;PMS5003;51124;53.394;-6.294;2023-03-14T03:20:05;5;5;
64697;PMS5003;51124;53.394;-6.294;2023-03-14T03:22:33;5;5;
64697;PMS5003;51124;53.394;-6.294;2023-03-14T03:25:02;7;7;
64697;PMS5003;51124;53.394;-6.294;2023-03-14T03:27:31;7;7;
64697;PMS5003;51124;53.394;-6.294;2023-03-14T03:30:00;7;7;
64697;PMS5003;51124;53.394;-6.294;2023-03-14T03:32:29;4;4;
64697;PMS5003;51124;53.394;-6.294;2023-03-14T03:34:56;7;6;
64697;PMS5003;51124;53.394;-6.294;2023-03-14T03:37:24;6;6;
64697;PMS5003;51124;53.394;-6.294;2023-03-14T03:39:51;5;5;
64697;PMS5003;51124;53.394;-6.294;2023-03-14T03:42:19;6;6;
64697;PMS5003;51124;53.394;-6.294;2023-03-14T03:44:46;9;6;
64697;PMS5003;51124;53.394;-6.294;2023-03-14T03:47:13;6;6;
64697;PMS5003;51124;53.394;-6.294;2023-03-14T03:49:41;6;6;
64697;PMS5003;51124;53.394;-6.294;2023-03-14T03:52:08;7;6;
64697;PMS5003;51124;53.394;-6.294;2023-03-14T03:54:36;5;5;
64697;PMS5003;51124;53.394;-6.294;2023-03-14T03:57:03;4;4;
64697;PMS5003;51124;53.394;-6.294;2023-03-14T03:59:30;6;5;
64697;PMS5003;51124;53.394;-6.294;2023-03-14T04:01:58;6;6;
64697;PMS5003;51124;53.394;-6.294;2023-03-14T04:04:26;5;5;
64697;PMS5003;51124;53.394;-6.294;2023-03-14T04:06:53;7;7;
64697;PMS5003;51124;53.394;-6.294;2023-03-14T04:09:20;7;7;
64697;PMS5003;51124;53.394;-6.294;2023-03-14T04:11:48;6;6;
64697;PMS5003;51124;53.394;-6.294;2023-03-14T04:14:15;5;5;
64697;PMS5003;51124;53.394;-6.294;2023-03-14T04:16:42;4;4;
64697;PMS5003;51124;53.394;-6.294;2023-03-14T04:19:10;5;5;
64697;PMS5003;51124;53.394;-6.294;2023-03-14T04:21:37;6;6;
64697;PMS5003;51124;53.394;-6.294;2023-03-14T04:24:04;4;4;
64697;PMS5003;51124;53.394;-6.294;2023-03-14T04:26:33;5;5;
64697;PMS5003;51124;53.394;-6.294;2023-03-14T04:29:00;6;5;
64697;PMS5003;51124;53.394;-6.294;2023-03-14T04:31:27;6;6;
64697;PMS5003;51124;53.394;-6.294;2023-03-14T04:33:55;5;5;
64697;PMS5003;51124;53.394;-6.294;2023-03-14T04:36:22;4;4;
64697;PMS5003;51124;53.394;-6.294;2023-03-14T04:38:49;6;6;
64697;PMS5003;51124;53.394;-6.294;2023-03-14T04:41:17;7;7;
64697;PMS5003;51124;53.394;-6.294;2023-03-14T04:43:44;5;5;
64697;PMS5003;51124;53.394;-6.294;2023-03-14T04:46:11;5;5;
64697;PMS5003;51124;53.394;-6.294;2023-03-14T04:48:38;6;6;
64697;PMS5003;51124;53.394;-6.294;2023-03-14T04:51:06;6;6;
64697;PMS5003;51124;53.394;-6.294;2023-03-14T04:53:34;4;4;
64697;PMS5003;51124;53.394;-6.294;2023-03-14T04:56:01;4;4;
64697;PMS5003;51124;53.394;-6.294;2023-03-14T04:58:29;7;4;
64697;PMS5003;51124;53.394;-6.294;2023-03-14T05:01:01;7;6;
64697;PMS5003;51124;53.394;-6.294;2023-03-14T05:03:28;5;5;
64697;PMS5003;51124;53.394;-6.294;2023-03-14T05:05:56;5;5;
64697;PMS5003;51124;53.394;-6.294;2023-03-14T05:08:23;3;3;
64697;PMS5003;51124;53.394;-6.294;2023-03-14T05:10:51;5;5;
64697;PMS5003;51124;53.394;-6.294;2023-03-14T05:13:19;5;5;
64697;PMS5003;51124;53.394;-6.294;2023-03-14T05:15:46;5;5;
64697;PMS5003;51124;53.394;-6.294;2023-03-14T05:18:14;5;5;
64697;PMS5003;51124;53.394;-6.294;2023-03-14T05:20:41;6;6;
64697;PMS5003;51124;53.394;-6.294;2023-03-14T05:23:09;5;5;
64697;PMS5003;51124;53.394;-6.294;2023-03-14T05:25:36;4;4;
64697;PMS5003;51124;53.394;-6.294;2023-03-14T05:28:04;7;6;
64697;PMS5003;51124;53.394;-6.294;2023-03-14T05:30:31;7;6;
64697;PMS5003;51124;53.394;-6.294;2023-03-14T05:32:58;5;5;
64697;PMS5003;51124;53.394;-6.294;2023-03-14T05:35:26;7;7;
64697;PMS5003;51124;53.394;-6.294;2023-03-14T05:37:53;4;4;
64697;PMS5003;51124;53.394;-6.294;2023-03-14T05:40:21;5;5;
64697;PMS5003;51124;53.394;-6.294;2023-03-14T05:42:49;5;5;
64697;PMS5003;51124;53.394;-6.294;2023-03-14T05:45:16;4;4;
64697;PMS5003;51124;53.394;-6.294;2023-03-14T05:47:44;6;5;
64697;PMS5003;51124;53.394;-6.294;2023-03-14T05:50:12;5;5;
64697;PMS5003;51124;53.394;-6.294;2023-03-14T05:52:40;6;6;
64697;PMS5003;51124;53.394;-6.294;2023-03-14T05:55:08;6;6;
64697;PMS5003;51124;53.394;-6.294;2023-03-14T05:57:36;4;3;
64697;PMS5003;51124;53.394;-6.294;2023-03-14T06:00:04;7;6;
64697;PMS5003;51124;53.394;-6.294;2023-03-14T06:02:32;3;3;
64697;PMS5003;51124;53.394;-6.294;2023-03-14T06:05:00;5;5;
64697;PMS5003;51124;53.394;-6.294;2023-03-14T06:07:29;5;5;
64697;PMS5003;51124;53.394;-6.294;2023-03-14T06:09:57;6;6;
64697;PMS5003;51124;53.394;-6.294;2023-03-14T06:12:25;5;5;
64697;PMS5003;51124;53.394;-6.294;2023-03-14T06:14:53;6;5;
64697;PMS5003;51124;53.394;-6.294;2023-03-14T06:17:20;4;4;
64697;PMS5003;51124;53.394;-6.294;2023-03-14T06:19:48;6;6;
64697;PMS5003;51124;53.394;-6.294;2023-03-14T06:22:16;5;5;
64697;PMS5003;51124;53.394;-6.294;2023-03-14T06:24:44;5;5;
64697;PMS5003;51124;53.394;-6.294;2023-03-14T06:27:11;8;7;
64697;PMS5003;51124;53.394;-6.294;2023-03-14T06:29:39;6;6;
64697;PMS5003;51124;53.394;-6.294;2023-03-14T06:32:07;6;4;
64697;PMS5003;51124;53.394;-6.294;2023-03-14T06:34:34;6;4;
64697;PMS5003;51124;53.394;-6.294;2023-03-14T06:37:02;6;6;
64697;PMS5003;51124;53.394;-6.294;2023-03-14T06:39:29;6;6;
64697;PMS5003;51124;53.394;-6.294;2023-03-14T06:41:57;5;5;
64697;PMS5003;51124;53.394;-6.294;2023-03-14T06:44:24;4;4;
64697;PMS5003;51124;53.394;-6.294;2023-03-14T06:46:51;5;5;
64697;PMS5003;51124;53.394;-6.294;2023-03-14T06:49:19;6;6;
64697;PMS5003;51124;53.394;-6.294;2023-03-14T06:51:47;5;5;
64697;PMS5003;51124;53.394;-6.294;2023-03-14T06:54:14;5;5;
64697;PMS5003;51124;53.394;-6.294;2023-03-14T06:56:42;6;5;
64697;PMS5003;51124;53.394;-6.294;2023-03-14T06:59:09;5;5;
64697;PMS5003;51124;53.394;-6.294;2023-03-14T07:01:37;3;3;
64697;PMS5003;51124;53.394;-6.294;2023-03-14T07:04:04;6;4;
64697;PMS5003;51124;53.394;-6.294;2023-03-14T07:06:33;6;6;
64697;PMS5003;51124;53.394;-6.294;2023-03-14T07:09:01;4;4;
64697;PMS5003;51124;53.394;-6.294;2023-03-14T07:11:28;4;4;
64697;PMS5003;51124;53.394;-6.294;2023-03-14T07:13:55;5;4;
64697;PMS5003;51124;53.394;-6.294;2023-03-14T07:16:23;4;4;
64697;PMS5003;51124;53.394;-6.294;2023-03-14T07:18:50;5;5;
64697;PMS5003;51124;53.394;-6.294;2023-03-14T07:21:17;6;5;
64697;PMS5003;51124;53.394;-6.294;2023-03-14T07:23:44;5;5;
64697;PMS5003;51124;53.394;-6.294;2023-03-14T07:26:12;6;6;
64697;PMS5003;51124;53.394;-6.294;2023-03-14T07:28:39;3;3;
64697;PMS5003;51124;53.394;-6.294;2023-03-14T07:31:06;5;5;
64697;PMS5003;51124;53.394;-6.294;2023-03-14T07:33:34;6;6;
64697;PMS5003;51124;53.394;-6.294;2023-03-14T07:36:01;5;5;
64697;PMS5003;51124;53.394;-6.294;2023-03-14T07:38:29;5;5;
64697;PMS5003;51124;53.394;-6.294;2023-03-14T07:40:58;4;4;
64697;PMS5003;51124;53.394;-6.294;2023-03-14T07:43:25;6;4;
64697;PMS5003;51124;53.394;-6.294;2023-03-14T07:45:53;5;5;
64697;PMS5003;51124;53.394;-6.294;2023-03-14T07:48:20;5;5;
64697;PMS5003;51124;53.394;-6.294;2023-03-14T07:50:48;4;4;
64697;PMS5003;51124;53.394;-6.294;2023-03-14T07:53:16;4;4;
64697;PMS5003;51124;53.394;-6.294;2023-03-14T07:55:44;6;6;
64697;PMS5003;51124;53.394;-6.294;2023-03-14T07:58:12;5;5;
64697;PMS5003;51124;53.394;-6.294;2023-03-14T08:00:39;5;4;
64697;PMS5003;51124;53.394;-6.294;2023-03-14T08:03:07;5;4;
64697;PMS5003;51124;53.394;-6.294;2023-03-14T08:05:35;3;3;
64697;PMS5003;51124;53.394;-6.294;2023-03-14T08:08:03;4;4;
64697;PMS5003;51124;53.394;-6.294;2023-03-14T08:10:30;5;5;
64697;PMS5003;51124;53.394;-6.294;2023-03-14T08:12:59;5;5;
64697;PMS5003;51124;53.394;-6.294;2023-03-14T08:15:29;4;4;
64697;PMS5003;51124;53.394;-6.294;2023-03-14T08:17:57;5;5;
64697;PMS5003;51124;53.394;-6.294;2023-03-14T08:20:25;6;4;
64697;PMS5003;51124;53.394;-6.294;2023-03-14T08:22:55;5;5;
64697;PMS5003;51124;53.394;-6.294;2023-03-14T08:25:23;5;5;
64697;PMS5003;51124;53.394;-6.294;2023-03-14T08:27:51;4;4;
64697;PMS5003;51124;53.394;-6.294;2023-03-14T08:30:19;4;4;
64697;PMS5003;51124;53.394;-6.294;2023-03-14T08:32:47;4;4;
64697;PMS5003;51124;53.394;-6.294;2023-03-14T08:35:14;5;5;
64697;PMS5003;51124;53.394;-6.294;2023-03-14T08:37:42;4;4;
64697;PMS5003;51124;53.394;-6.294;2023-03-14T08:40:10;4;4;
64697;PMS5003;51124;53.394;-6.294;2023-03-14T08:42:38;5;5;
64697;PMS5003;51124;53.394;-6.294;2023-03-14T08:45:07;8;6;
64697;PMS5003;51124;53.394;-6.294;2023-03-14T08:47:36;4;4;
64697;PMS5003;51124;53.394;-6.294;2023-03-14T08:50:05;4;4;
64697;PMS5003;51124;53.394;-6.294;2023-03-14T08:52:34;4;3;
64697;PMS5003;51124;53.394;-6.294;2023-03-14T08:55:02;4;2;
64697;PMS5003;51124;53.394;-6.294;2023-03-14T08:57:30;6;4;
64697;PMS5003;51124;53.394;-6.294;2023-03-14T08:59:58;4;4;
64697;PMS5003;51124;53.394;-6.294;2023-03-14T09:02:26;5;5;
64697;PMS5003;51124;53.394;-6.294;2023-03-14T09:04:54;4;4;
64697;PMS5003;51124;53.394;-6.294;2023-03-14T09:07:22;5;5;
64697;PMS5003;51124;53.394;-6.294;2023-03-14T09:09:50;5;5;
64697;PMS5003;51124;53.394;-6.294;2023-03-14T09:12:17;7;7;
64697;PMS5003;51124;53.394;-6.294;2023-03-14T09:14:45;4;4;
64697;PMS5003;51124;53.394;-6.294;2023-03-14T09:17:13;5;5;
64697;PMS5003;51124;53.394;-6.294;2023-03-14T09:19:41;6;6;
64697;PMS5003;51124;53.394;-6.294;2023-03-14T09:22:09;5;5;
64697;PMS5003;51124;53.394;-6.294;2023-03-14T09:24:40;4;4;
64697;PMS5003;51124;53.394;-6.294;2023-03-14T09:27:08;4;4;
64697;PMS5003;51124;53.394;-6.294;2023-03-14T09:29:37;3;3;
64697;PMS5003;51124;53.394;-6.294;2023-03-14T09:32:05;3;3;
64697;PMS5003;51124;53.394;-6.294;2023-03-14T09:34:33;4;4;
64697;PMS5003;51124;53.394;-6.294;2023-03-14T09:37:01;5;4;
64697;PMS5003;51124;53.394;-6.294;2023-03-14T09:39:29;5;5;
64697;PMS5003;51124;53.394;-6.294;2023-03-14T09:41:57;4;4;
64697;PMS5003;51124;53.394;-6.294;2023-03-14T09:44:31;3;3;
64697;PMS5003;51124;53.394;-6.294;2023-03-14T09:47:03;5;5;
64697;PMS5003;51124;53.394;-6.294;2023-03-14T09:49:36;3;3;
64697;PMS5003;51124;53.394;-6.294;2023-03-14T09:52:06;2;2;
64697;PMS5003;51124;53.394;-6.294;2023-03-14T09:54:31;4;4;
64697;PMS5003;51124;53.394;-6.294;2023-03-14T09:57:02;3;3;
64697;PMS5003;51124;53.394;-6.294;2023-03-14T09:59:31;3;3;
64697;PMS5003;51124;53.394;-6.294;2023-03-14T10:02:01;4;4;
64697;PMS5003;51124;53.394;-6.294;2023-03-14T10:04:27;2;2;
64697;PMS5003;51124;53.394;-6.294;2023-03-14T10:06:56;4;4;
64697;PMS5003;51124;53.394;-6.294;2023-03-14T10:09:24;3;3;
64697;PMS5003;51124;53.394;-6.294;2023-03-14T10:11:53;2;2;
64697;PMS5003;51124;53.394;-6.294;2023-03-14T10:14:30;2;2;
64697;PMS5003;51124;53.394;-6.294;2023-03-14T10:16:49;1;1;
64697;PMS5003;51124;53.394;-6.294;2023-03-14T10:19:16;2;2;
64697;PMS5003;51124;53.394;-6.294;2023-03-14T10:21:44;3;3;
64697;PMS5003;51124;53.394;-6.294;2023-03-14T10:24:19;2;2;
64697;PMS5003;51124;53.394;-6.294;2023-03-14T10:26:53;3;3;
64697;PMS5003;51124;53.394;-6.294;2023-03-14T10:29:24;4;4;
64697;PMS5003;51124;53.394;-6.294;2023-03-14T10:31:52;4;4;
64697;PMS5003;51124;53.394;-6.294;2023-03-14T10:34:24;2;2;
64697;PMS5003;51124;53.394;-6.294;2023-03-14T10:36:53;2;1;
64697;PMS5003;51124;53.394;-6.294;2023-03-14T10:39:24;4;4;
64697;PMS5003;51124;53.394;-6.294;2023-03-14T10:42:01;2;2;
64697;PMS5003;51124;53.394;-6.294;2023-03-14T10:44:26;3;3;
64697;PMS5003;51124;53.394;-6.294;2023-03-14T10:46:55;4;4;
64697;PMS5003;51124;53.394;-6.294;2023-03-14T10:49:26;3;3;
64697;PMS5003;51124;53.394;-6.294;2023-03-14T10:51:54;2;2;
64697;PMS5003;51124;53.394;-6.294;2023-03-14T10:54:29;2;2;
64697;PMS5003;51124;53.394;-6.294;2023-03-14T10:56:57;3;3;
64697;PMS5003;51124;53.394;-6.294;2023-03-14T10:59:34;4;3;
64697;PMS5003;51124;53.394;-6.294;2023-03-14T11:01:54;4;3;
64697;PMS5003;51124;53.394;-6.294;2023-03-14T11:04:31;1;1;
64697;PMS5003;51124;53.394;-6.294;2023-03-14T11:06:53;1;1;
64697;PMS5003;51124;53.394;-6.294;2023-03-14T11:09:18;2;2;
64697;PMS5003;51124;53.394;-6.294;2023-03-14T11:11:44;2;2;
64697;PMS5003;51124;53.394;-6.294;2023-03-14T11:14:15;2;2;
64697;PMS5003;51124;53.394;-6.294;2023-03-14T11:16:42;2;2;
64697;PMS5003;51124;53.394;-6.294;2023-03-14T11:19:10;3;3;
64697;PMS5003;51124;53.394;-6.294;2023-03-14T11:21:35;3;3;
64697;PMS5003;51124;53.394;-6.294;2023-03-14T11:24:14;2;2;
64697;PMS5003;51124;53.394;-6.294;2023-03-14T11:26:42;2;2;
64697;PMS5003;51124;53.394;-6.294;2023-03-14T11:29:18;2;2;
64697;PMS5003;51124;53.394;-6.294;2023-03-14T11:31:43;0;0;
64697;PMS5003;51124;53.394;-6.294;2023-03-14T11:34:13;1;1;
64697;PMS5003;51124;53.394;-6.294;2023-03-14T11:36:37;3;3;
64697;PMS5003;51124;53.394;-6.294;2023-03-14T11:39:11;3;3;
64697;PMS5003;51124;53.394;-6.294;2023-03-14T11:41:42;2;2;
64697;PMS5003;51124;53.394;-6.294;2023-03-14T11:44:14;2;2;
64697;PMS5003;51124;53.394;-6.294;2023-03-14T11:46:45;5;3;
64697;PMS5003;51124;53.394;-6.294;2023-03-14T11:49:18;2;2;
64697;PMS5003;51124;53.394;-6.294;2023-03-14T11:51:46;2;2;
64697;PMS5003;51124;53.394;-6.294;2023-03-14T11:54:18;4;3;
64697;PMS5003;51124;53.394;-6.294;2023-03-14T11:56:46;2;2;
64697;PMS5003;51124;53.394;-6.294;2023-03-14T11:59:19;2;2;
64697;PMS5003;51124;53.394;-6.294;2023-03-14T12:01:53;2;2;
64697;PMS5003;51124;53.394;-6.294;2023-03-14T12:04:30;1;1;
64697;PMS5003;51124;53.394;-6.294;2023-03-14T12:06:59;1;1;
64697;PMS5003;51124;53.394;-6.294;2023-03-14T12:09:23;1;1;
64697;PMS5003;51124;53.394;-6.294;2023-03-14T12:11:52;1;1;
64697;PMS5003;51124;53.394;-6.294;2023-03-14T12:14:26;2;2;
64697;PMS5003;51124;53.394;-6.294;2023-03-14T12:16:56;1;1;
64697;PMS5003;51124;53.394;-6.294;2023-03-14T12:19:30;2;2;
64697;PMS5003;51124;53.394;-6.294;2023-03-14T12:22:01;2;2;
64697;PMS5003;51124;53.394;-6.294;2023-03-14T12:24:29;1;1;
64697;PMS5003;51124;53.394;-6.294;2023-03-14T12:27:00;1;1;
64697;PMS5003;51124;53.394;-6.294;2023-03-14T12:29:29;2;2;
64697;PMS5003;51124;53.394;-6.294;2023-03-14T12:32:06;2;2;
64697;PMS5003;51124;53.394;-6.294;2023-03-14T12:34:27;1;1;
64697;PMS5003;51124;53.394;-6.294;2023-03-14T12:36:59;2;2;
64697;PMS5003;51124;53.394;-6.294;2023-03-14T12:39:30;1;1;
64697;PMS5003;51124;53.394;-6.294;2023-03-14T12:42:01;1;1;
64697;PMS5003;51124;53.394;-6.294;2023-03-14T12:44:38;2;2;
64697;PMS5003;51124;53.394;-6.294;2023-03-14T12:46:58;2;2;
64697;PMS5003;51124;53.394;-6.294;2023-03-14T12:49:32;2;2;
64697;PMS5003;51124;53.394;-6.294;2023-03-14T12:52:01;2;2;
64697;PMS5003;51124;53.394;-6.294;2023-03-14T12:54:31;1;1;
64697;PMS5003;51124;53.394;-6.294;2023-03-14T12:57:04;2;2;
64697;PMS5003;51124;53.394;-6.294;2023-03-14T12:59:28;2;2;
64697;PMS5003;51124;53.394;-6.294;2023-03-14T13:02:36;1;1;
64697;PMS5003;51124;53.394;-6.294;2023-03-14T13:04:28;1;1;
64697;PMS5003;51124;53.394;-6.294;2023-03-14T13:06:59;2;2;
64697;PMS5003;51124;53.394;-6.294;2023-03-14T13:10:04;1;1;
64697;PMS5003;51124;53.394;-6.294;2023-03-14T13:11:56;2;2;
64697;PMS5003;51124;53.394;-6.294;2023-03-14T13:14:23;1;1;
64697;PMS5003;51124;53.394;-6.294;2023-03-14T13:16:52;0;0;
64697;PMS5003;51124;53.394;-6.294;2023-03-14T13:19:21;0;0;
64697;PMS5003;51124;53.394;-6.294;2023-03-14T13:21:52;0;0;
64697;PMS5003;51124;53.394;-6.294;2023-03-14T13:24:26;1;0;
64697;PMS5003;51124;53.394;-6.294;2023-03-14T13:26:58;2;1;
64697;PMS5003;51124;53.394;-6.294;2023-03-14T13:29:26;0;0;
64697;PMS5003;51124;53.394;-6.294;2023-03-14T13:31:55;1;1;
64697;PMS5003;51124;53.394;-6.294;2023-03-14T13:34:25;0;0;
64697;PMS5003;51124;53.394;-6.294;2023-03-14T13:36:54;3;2;
64697;PMS5003;51124;53.394;-6.294;2023-03-14T13:39:22;2;2;
64697;PMS5003;51124;53.394;-6.294;2023-03-14T13:41:51;2;2;
64697;PMS5003;51124;53.394;-6.294;2023-03-14T13:44:23;2;1;
64697;PMS5003;51124;53.394;-6.294;2023-03-14T13:46:57;1;1;
64697;PMS5003;51124;53.394;-6.294;2023-03-14T13:49:26;2;2;
64697;PMS5003;51124;53.394;-6.294;2023-03-14T13:51:55;1;1;
64697;PMS5003;51124;53.394;-6.294;2023-03-14T13:54:22;1;1;
64697;PMS5003;51124;53.394;-6.294;2023-03-14T13:56:58;2;2;
64697;PMS5003;51124;53.394;-6.294;2023-03-14T13:59:27;1;1;
64697;PMS5003;51124;53.394;-6.294;2023-03-14T14:01:56;1;1;
64697;PMS5003;51124;53.394;-6.294;2023-03-14T14:04:28;2;2;
64697;PMS5003;51124;53.394;-6.294;2023-03-14T14:06:58;1;1;
64697;PMS5003;51124;53.394;-6.294;2023-03-14T14:09:35;3;3;
64697;PMS5003;51124;53.394;-6.294;2023-03-14T14:12:05;4;2;
64697;PMS5003;51124;53.394;-6.294;2023-03-14T14:14:36;3;1;
64697;PMS5003;51124;53.394;-6.294;2023-03-14T14:17:07;0;0;
64697;PMS5003;51124;53.394;-6.294;2023-03-14T14:19:37;2;2;
64697;PMS5003;51124;53.394;-6.294;2023-03-14T14:22:06;1;1;
64697;PMS5003;51124;53.394;-6.294;2023-03-14T14:24:36;4;4;
64697;PMS5003;51124;53.394;-6.294;2023-03-14T14:27:08;2;2;
64697;PMS5003;51124;53.394;-6.294;2023-03-14T14:29:38;2;2;
64697;PMS5003;51124;53.394;-6.294;2023-03-14T14:32:11;2;2;
64697;PMS5003;51124;53.394;-6.294;2023-03-14T14:34:40;3;1;
64697;PMS5003;51124;53.394;-6.294;2023-03-14T14:37:17;3;3;
64697;PMS5003;51124;53.394;-6.294;2023-03-14T14:39:36;1;1;
64697;PMS5003;51124;53.394;-6.294;2023-03-14T14:42:12;1;1;
64697;PMS5003;51124;53.394;-6.294;2023-03-14T14:44:41;2;2;
64697;PMS5003;51124;53.394;-6.294;2023-03-14T14:47:12;3;3;
64697;PMS5003;51124;53.394;-6.294;2023-03-14T14:49:41;2;2;
64697;PMS5003;51124;53.394;-6.294;2023-03-14T14:52:11;2;2;
64697;PMS5003;51124;53.394;-6.294;2023-03-14T14:54:43;3;3;
64697;PMS5003;51124;53.394;-6.294;2023-03-14T14:57:13;2;2;
64697;PMS5003;51124;53.394;-6.294;2023-03-14T14:59:41;2;2;
64697;PMS5003;51124;53.394;-6.294;2023-03-14T15:02:09;2;2;
64697;PMS5003;51124;53.394;-6.294;2023-03-14T15:04:45;5;2;
64697;PMS5003;51124;53.394;-6.294;2023-03-14T15:07:13;1;1;
64697;PMS5003;51124;53.394;-6.294;2023-03-14T15:09:41;2;2;
64697;PMS5003;51124;53.394;-6.294;2023-03-14T15:12:09;3;3;
64697;PMS5003;51124;53.394;-6.294;2023-03-14T15:14:36;2;2;
64697;PMS5003;51124;53.394;-6.294;2023-03-14T15:17:05;2;2;
64697;PMS5003;51124;53.394;-6.294;2023-03-14T15:19:35;2;2;
64697;PMS5003;51124;53.394;-6.294;2023-03-14T15:22:04;1;1;
64697;PMS5003;51124;53.394;-6.294;2023-03-14T15:24:36;2;2;
64697;PMS5003;51124;53.394;-6.294;2023-03-14T15:27:05;4;3;
64697;PMS5003;51124;53.394;-6.294;2023-03-14T15:29:38;2;2;
64697;PMS5003;51124;53.394;-6.294;2023-03-14T15:32:08;3;3;
64697;PMS5003;51124;53.394;-6.294;2023-03-14T15:34:37;1;1;
64697;PMS5003;51124;53.394;-6.294;2023-03-14T15:37:05;2;2;
64697;PMS5003;51124;53.394;-6.294;2023-03-14T15:39:36;3;1;
64697;PMS5003;51124;53.394;-6.294;2023-03-14T15:42:08;4;4;
64697;PMS5003;51124;53.394;-6.294;2023-03-14T15:44:37;3;3;
64697;PMS5003;51124;53.394;-6.294;2023-03-14T15:47:05;2;2;
64697;PMS5003;51124;53.394;-6.294;2023-03-14T15:49:33;3;3;
64697;PMS5003;51124;53.394;-6.294;2023-03-14T15:52:01;2;2;
64697;PMS5003;51124;53.394;-6.294;2023-03-14T15:54:30;4;2;
64697;PMS5003;51124;53.394;-6.294;2023-03-14T15:56:58;3;3;
64697;PMS5003;51124;53.394;-6.294;2023-03-14T15:59:26;3;3;
64697;PMS5003;51124;53.394;-6.294;2023-03-14T16:01:54;2;2;
64697;PMS5003;51124;53.394;-6.294;2023-03-14T16:04:24;4;4;
64697;PMS5003;51124;53.394;-6.294;2023-03-14T16:06:52;2;2;
64697;PMS5003;51124;53.394;-6.294;2023-03-14T16:09:20;3;3;
64697;PMS5003;51124;53.394;-6.294;2023-03-14T16:11:48;3;3;
64697;PMS5003;51124;53.394;-6.294;2023-03-14T16:14:15;4;4;
64697;PMS5003;51124;53.394;-6.294;2023-03-14T16:16:44;2;2;
64697;PMS5003;51124;53.394;-6.294;2023-03-14T16:19:12;2;2;
64697;PMS5003;51124;53.394;-6.294;2023-03-14T16:21:39;1;1;
64697;PMS5003;51124;53.394;-6.294;2023-03-14T16:24:07;3;2;
64697;PMS5003;51124;53.394;-6.294;2023-03-14T16:26:34;4;4;
64697;PMS5003;51124;53.394;-6.294;2023-03-14T16:29:02;3;3;
64697;PMS5003;51124;53.394;-6.294;2023-03-14T16:31:29;4;3;
64697;PMS5003;51124;53.394;-6.294;2023-03-14T16:34:00;4;2;
64697;PMS5003;51124;53.394;-6.294;2023-03-14T16:36:27;2;2;
64697;PMS5003;51124;53.394;-6.294;2023-03-14T16:38:54;3;3;
64697;PMS5003;51124;53.394;-6.294;2023-03-14T16:41:22;4;4;
64697;PMS5003;51124;53.394;-6.294;2023-03-14T16:43:49;5;5;